createdAt,value
2019-01-09T00:01:28.164Z,3.82
2019-01-09T00:03:58.405Z,3.69
2019-01-09T00:06:29.026Z,3.47
2019-01-09T00:09:00.280Z,3.43
2019-01-09T00:11:31.004Z,3.49
2019-01-09T00:14:01.257Z,3.58
2019-01-09T00:16:31.502Z,3.59
2019-01-09T00:19:01.786Z,3.54
2019-01-09T00:21:32.073Z,3.47
2019-01-09T00:24:02.915Z,3.44
2019-01-09T00:26:33.129Z,3.29
2019-01-09T00:29:03.454Z,3.17
2019-01-09T00:31:33.676Z,3.08
2019-01-09T00:34:03.942Z,3.02
2019-01-09T00:36:34.324Z,3.09
2019-01-09T00:39:05.634Z,3.03
2019-01-09T00:41:35.928Z,2.99
2019-01-09T00:44:06.434Z,2.91
2019-01-09T00:46:36.652Z,2.88
2019-01-09T00:49:06.912Z,2.81
2019-01-09T00:51:37.286Z,2.75
2019-01-09T00:54:07.576Z,2.76
2019-01-09T00:56:38.960Z,2.84
2019-01-09T00:59:09.239Z,2.90
2019-01-09T01:01:39.532Z,2.90
2019-01-09T01:04:54.652Z,2.96
2019-01-09T01:08:11.716Z,3.01
2019-01-09T01:11:10.752Z,3.08
2019-01-09T01:14:22.213Z,3.05
2019-01-09T01:17:26.255Z,3.02
2019-01-09T01:20:31.252Z,2.89
2019-01-09T01:24:01.037Z,2.81
2019-01-09T01:27:05.085Z,2.87
2019-01-09T01:30:12.093Z,2.99
2019-01-09T01:33:29.655Z,3.18
2019-01-09T01:36:46.019Z,3.38
2019-01-09T01:39:38.285Z,3.34
2019-01-09T01:42:55.305Z,3.29
2019-01-09T01:46:09.694Z,3.32
2019-01-09T01:49:19.447Z,3.21
2019-01-09T01:52:23.246Z,3.09
2019-01-09T01:55:21.614Z,2.99
2019-01-09T01:58:45.038Z,2.93
2019-01-09T02:01:59.841Z,2.83
2019-01-09T02:04:49.934Z,2.79
2019-01-09T02:08:05.521Z,2.80
2019-01-09T02:11:35.028Z,2.78
2019-01-09T02:15:13.619Z,2.82
2019-01-09T02:17:53.831Z,2.82
2019-01-09T02:21:09.284Z,2.82
2019-01-09T02:24:21.043Z,2.88
2019-01-09T02:27:34.758Z,2.97
2019-01-09T02:30:40.819Z,3.12
2019-01-09T02:33:13.462Z,3.15
2019-01-09T02:35:43.815Z,3.23
2019-01-09T02:38:19.820Z,3.28
2019-01-09T02:40:52.014Z,3.28
2019-01-09T02:43:24.061Z,3.33
2019-01-09T02:45:56.263Z,3.35
2019-01-09T02:48:29.916Z,3.33
2019-01-09T02:51:00.232Z,3.31
2019-01-09T02:53:30.476Z,3.24
2019-01-09T02:56:00.748Z,3.24
2019-01-09T02:58:31.345Z,3.20
2019-01-09T03:01:01.594Z,3.18
2019-01-09T03:03:33.207Z,3.16
2019-01-09T03:06:03.459Z,3.15
2019-01-09T03:08:34.675Z,3.13
2019-01-09T03:11:06.231Z,3.19
2019-01-09T03:13:36.481Z,3.18
2019-01-09T03:16:06.760Z,3.24
2019-01-09T03:18:37.008Z,3.27
2019-01-09T03:21:07.375Z,3.26
2019-01-09T03:23:37.716Z,3.30
2019-01-09T03:26:07.919Z,3.22
2019-01-09T03:28:38.524Z,3.10
2019-01-09T03:31:08.799Z,3.02
2019-01-09T03:33:39.260Z,3.00
2019-01-09T03:36:09.524Z,3.01
2019-01-09T03:38:40.127Z,2.99
2019-01-09T03:41:10.417Z,2.94
2019-01-09T03:43:40.979Z,2.95
2019-01-09T03:46:11.230Z,2.89
2019-01-09T03:48:42.578Z,2.83
2019-01-09T03:51:13.171Z,2.83
2019-01-09T03:53:43.396Z,2.86
2019-01-09T03:56:13.639Z,2.83
2019-01-09T03:58:44.866Z,2.85
2019-01-09T04:01:20.951Z,2.90
2019-01-09T04:03:51.240Z,2.94
2019-01-09T04:06:22.456Z,2.95
2019-01-09T04:08:52.690Z,2.95
2019-01-09T04:11:23.898Z,2.95
2019-01-09T04:13:59.499Z,2.97
2019-01-09T04:16:30.342Z,2.99
2019-01-09T04:19:01.612Z,3.01
2019-01-09T04:21:32.772Z,3.02
2019-01-09T04:24:02.989Z,3.03
2019-01-09T04:26:44.277Z,2.99
2019-01-09T04:29:19.077Z,2.95
2019-01-09T04:31:49.707Z,2.89
2019-01-09T04:34:20.005Z,2.89
2019-01-09T04:36:51.830Z,2.86
2019-01-09T04:39:22.306Z,2.86
2019-01-09T04:41:53.045Z,2.86
2019-01-09T04:44:24.403Z,2.84
2019-01-09T04:46:54.656Z,2.74
2019-01-09T04:49:24.962Z,2.68
2019-01-09T04:51:55.657Z,2.57
2019-01-09T04:54:26.217Z,2.48
2019-01-09T04:56:57.002Z,2.47
2019-01-09T04:59:27.256Z,2.46
2019-01-09T05:01:58.576Z,2.43
2019-01-09T05:04:28.811Z,2.45
2019-01-09T05:07:00.739Z,2.40
2019-01-09T05:09:31.198Z,2.38
2019-01-09T05:12:01.426Z,2.39
2019-01-09T05:14:31.636Z,2.41
2019-01-09T05:17:01.898Z,2.41
2019-01-09T05:19:32.390Z,2.42
2019-01-09T05:22:02.692Z,2.40
2019-01-09T05:24:33.276Z,2.34
2019-01-09T05:27:03.574Z,2.14
2019-01-09T05:29:33.798Z,2.02
2019-01-09T05:32:04.120Z,1.93
2019-01-09T05:34:34.348Z,1.79
2019-01-09T05:37:09.473Z,1.65
2019-01-09T05:39:39.768Z,1.70
2019-01-09T05:42:08.593Z,1.85
2019-01-09T05:44:38.817Z,1.87
2019-01-09T05:47:09.164Z,1.96
2019-01-09T05:49:39.709Z,2.05
2019-01-09T05:52:10.359Z,2.05
2019-01-09T05:54:41.633Z,2.06
2019-01-09T05:57:12.032Z,2.10
2019-01-09T05:59:43.009Z,2.11
2019-01-09T06:02:13.559Z,2.11
2019-01-09T06:04:44.906Z,2.12
2019-01-09T06:07:18.516Z,2.12
2019-01-09T06:09:47.166Z,2.14
2019-01-09T06:12:17.742Z,2.12
2019-01-09T06:14:48.271Z,2.12
2019-01-09T06:17:18.479Z,2.17
2019-01-09T06:19:48.706Z,2.12
2019-01-09T06:22:19.121Z,2.04
2019-01-09T06:24:49.828Z,1.96
2019-01-09T06:27:21.170Z,1.86
2019-01-09T06:29:51.430Z,1.72
2019-01-09T06:32:21.645Z,1.61
2019-01-09T06:34:51.888Z,1.51
2019-01-09T06:37:27.304Z,1.44
2019-01-09T06:39:54.428Z,1.40
2019-01-09T06:42:24.684Z,1.38
2019-01-09T06:44:55.075Z,1.32
2019-01-09T06:47:25.347Z,1.36
2019-01-09T06:49:55.953Z,1.41
2019-01-09T06:52:26.187Z,1.56
2019-01-09T06:54:56.434Z,1.69
2019-01-09T06:57:26.772Z,1.79
2019-01-09T06:59:57.048Z,1.83
2019-01-09T07:02:27.283Z,1.90
2019-01-09T07:04:57.608Z,1.91
2019-01-09T07:07:35.825Z,1.95
2019-01-09T07:10:00.987Z,1.98
2019-01-09T07:12:32.771Z,1.96
2019-01-09T07:15:11.252Z,1.96
2019-01-09T07:17:36.502Z,1.99
2019-01-09T07:20:07.084Z,2.00
2019-01-09T07:22:37.718Z,2.03
2019-01-09T07:25:07.996Z,2.06
2019-01-09T07:27:38.305Z,2.08
2019-01-09T07:30:09.669Z,2.03
2019-01-09T07:32:39.980Z,1.93
2019-01-09T07:35:10.543Z,1.88
2019-01-09T07:37:45.410Z,1.95
2019-01-09T07:40:14.346Z,1.98
2019-01-09T07:42:44.717Z,2.00
2019-01-09T07:45:15.326Z,2.03
2019-01-09T07:47:45.635Z,2.01
2019-01-09T07:50:15.963Z,2.04
2019-01-09T07:52:46.425Z,2.11
2019-01-09T07:55:17.805Z,2.20
2019-01-09T07:57:50.085Z,2.24
2019-01-09T08:00:21.436Z,2.34
2019-01-09T08:02:51.755Z,2.49
2019-01-09T08:05:21.991Z,2.54
2019-01-09T08:07:54.134Z,2.50
2019-01-09T08:10:24.468Z,2.45
2019-01-09T08:12:55.056Z,2.39
2019-01-09T08:15:25.328Z,2.31
2019-01-09T08:17:55.530Z,2.13
2019-01-09T08:20:25.695Z,2.02
2019-01-09T08:22:56.335Z,1.87
2019-01-09T08:25:26.567Z,1.91
2019-01-09T08:27:56.851Z,1.95
2019-01-09T08:30:27.480Z,1.97
2019-01-09T08:32:58.076Z,2.03
2019-01-09T08:35:28.674Z,2.12
2019-01-09T08:38:03.019Z,2.17
2019-01-09T08:40:31.952Z,2.24
2019-01-09T08:43:02.624Z,2.32
2019-01-09T08:45:32.944Z,2.33
2019-01-09T08:48:04.687Z,2.34
2019-01-09T08:50:34.887Z,2.36
2019-01-09T08:53:05.099Z,2.27
2019-01-09T08:55:35.303Z,2.27
2019-01-09T08:58:05.589Z,2.36
2019-01-09T09:00:35.909Z,2.37
2019-01-09T09:03:06.258Z,2.39
2019-01-09T09:05:36.535Z,2.45
2019-01-09T09:08:11.757Z,2.58
2019-01-09T09:10:38.919Z,2.67
2019-01-09T09:13:10.718Z,2.64
2019-01-09T09:15:42.301Z,2.68
2019-01-09T09:18:12.556Z,2.72
2019-01-09T09:20:42.825Z,2.78
2019-01-09T09:23:13.128Z,2.90
2019-01-09T09:25:44.896Z,3.07
2019-01-09T09:28:16.018Z,3.20
2019-01-09T09:30:46.237Z,3.30
2019-01-09T09:33:16.438Z,3.41
2019-01-09T09:35:47.032Z,3.57
2019-01-09T09:38:20.611Z,3.70
2019-01-09T09:40:49.309Z,3.70
2019-01-09T09:43:19.579Z,3.78
2019-01-09T09:45:49.797Z,3.66
2019-01-09T09:48:19.989Z,3.68
2019-01-09T09:50:50.299Z,3.70
2019-01-09T09:53:20.549Z,3.81
2019-01-09T09:55:50.888Z,3.87
2019-01-09T09:58:21.095Z,3.93
2019-01-09T10:00:51.484Z,3.87
2019-01-09T10:03:21.781Z,3.54
2019-01-09T10:05:52.134Z,3.37
2019-01-09T10:08:29.288Z,3.16
2019-01-09T10:10:54.414Z,3.07
2019-01-09T10:13:24.705Z,2.90
2019-01-09T10:15:55.058Z,2.82
2019-01-09T10:18:25.241Z,2.79
2019-01-09T10:20:55.510Z,2.82
2019-01-09T10:23:26.287Z,2.83
2019-01-09T10:25:56.576Z,2.86
2019-01-09T10:28:26.845Z,2.92
2019-01-09T10:30:57.119Z,3.06
2019-01-09T10:33:27.934Z,3.23
2019-01-09T10:35:58.182Z,3.31
2019-01-09T10:38:28.539Z,3.38
2019-01-09T10:40:58.824Z,3.64
2019-01-09T10:43:29.105Z,3.57
2019-01-09T10:45:59.399Z,3.65
2019-01-09T10:48:29.647Z,3.69
2019-01-09T10:51:00.343Z,3.75
2019-01-09T10:53:30.597Z,3.85
2019-01-09T10:56:00.961Z,3.93
2019-01-09T10:58:31.148Z,4.11
2019-01-09T11:01:01.429Z,4.33
2019-01-09T11:03:32.124Z,4.51
2019-01-09T11:06:02.700Z,4.87
2019-01-09T11:08:32.985Z,4.98
2019-01-09T11:11:03.244Z,4.96
2019-01-09T11:13:33.505Z,4.93
2019-01-09T11:16:03.968Z,5.05
2019-01-09T11:18:34.634Z,5.02
2019-01-09T11:21:05.084Z,5.02
2019-01-09T11:23:35.273Z,4.94
2019-01-09T11:26:06.063Z,4.56
2019-01-09T11:28:36.304Z,4.57
2019-01-09T11:31:06.557Z,4.68
2019-01-09T11:33:37.790Z,4.59
2019-01-09T11:36:08.030Z,4.85
2019-01-09T11:38:38.289Z,4.96
2019-01-09T11:41:08.910Z,4.87
2019-01-09T11:43:39.135Z,4.75
2019-01-09T11:46:10.845Z,4.67
2019-01-09T11:48:41.130Z,4.49
2019-01-09T11:51:11.397Z,4.35
2019-01-09T11:53:41.671Z,4.31
2019-01-09T11:56:11.944Z,4.05
2019-01-09T11:58:42.252Z,3.81
2019-01-09T12:01:12.596Z,3.65
2019-01-09T12:03:42.997Z,3.44
2019-01-09T12:06:13.349Z,3.21
2019-01-09T12:08:43.640Z,3.15
2019-01-09T12:11:13.896Z,3.05
2019-01-09T12:13:44.188Z,2.94
2019-01-09T12:16:14.483Z,2.80
2019-01-09T12:18:45.087Z,2.30
2019-01-09T12:21:16.939Z,2.00
2019-01-09T12:23:47.616Z,1.89
2019-01-09T12:26:17.887Z,1.80
2019-01-09T12:28:53.424Z,1.81
2019-01-09T12:31:20.389Z,1.86
2019-01-09T12:33:50.768Z,1.73
2019-01-09T12:36:21.320Z,1.58
2019-01-09T12:38:51.508Z,1.39
2019-01-09T12:41:21.817Z,1.31
2019-01-09T12:43:52.360Z,1.40
2019-01-09T12:46:22.644Z,1.59
2019-01-09T12:48:52.983Z,1.72
2019-01-09T12:51:23.401Z,1.87
2019-01-09T12:53:53.600Z,1.84
2019-01-09T12:56:23.912Z,1.96
2019-01-09T12:58:54.125Z,1.89
2019-01-09T13:01:25.857Z,2.09
2019-01-09T13:03:56.098Z,2.18
2019-01-09T13:06:26.370Z,2.36
2019-01-09T13:08:56.643Z,2.28
2019-01-09T13:11:26.958Z,2.43
2019-01-09T13:13:57.176Z,2.61
2019-01-09T13:16:27.493Z,2.78
2019-01-09T13:18:57.672Z,2.99
2019-01-09T13:21:27.909Z,2.86
2019-01-09T13:23:58.174Z,2.73
2019-01-09T13:26:28.477Z,2.75
2019-01-09T13:28:58.748Z,2.79
2019-01-09T13:31:30.158Z,2.85
2019-01-09T13:34:01.616Z,2.91
2019-01-09T13:36:31.902Z,2.87
2019-01-09T13:39:02.196Z,2.84
2019-01-09T13:41:33.482Z,2.94
2019-01-09T13:44:03.873Z,2.90
2019-01-09T13:46:34.137Z,2.98
2019-01-09T13:49:04.589Z,3.01
2019-01-09T13:51:34.882Z,2.73
2019-01-09T13:54:05.242Z,2.99
2019-01-09T13:56:35.609Z,3.04
2019-01-09T13:59:05.799Z,3.15
2019-01-09T14:01:36.074Z,3.31
2019-01-09T14:04:06.346Z,3.32
2019-01-09T14:06:36.538Z,3.30
2019-01-09T14:09:09.233Z,3.37
2019-01-09T14:11:39.549Z,3.43
2019-01-09T14:14:09.733Z,3.59
2019-01-09T14:16:40.070Z,3.75
2019-01-09T14:19:10.343Z,3.90
2019-01-09T14:21:41.547Z,4.01
2019-01-09T14:24:11.805Z,4.07
2019-01-09T14:26:43.065Z,3.87
2019-01-09T14:29:13.376Z,3.81
2019-01-09T14:31:43.607Z,3.80
2019-01-09T14:34:13.900Z,3.69
2019-01-09T14:36:44.232Z,3.59
2019-01-09T14:39:14.489Z,3.49
2019-01-09T14:41:44.699Z,3.44
2019-01-09T14:44:14.966Z,3.39
2019-01-09T14:46:45.267Z,3.40
2019-01-09T14:49:15.450Z,3.43
2019-01-09T14:51:45.896Z,3.41
2019-01-09T14:54:16.095Z,3.32
2019-01-09T14:56:46.279Z,3.33
2019-01-09T14:59:16.901Z,3.41
2019-01-09T15:01:47.084Z,3.46
2019-01-09T15:04:18.382Z,3.39
2019-01-09T15:06:48.745Z,3.35
2019-01-09T15:09:20.140Z,3.26
2019-01-09T15:11:50.401Z,3.10
2019-01-09T15:14:20.616Z,2.99
2019-01-09T15:16:50.882Z,2.90
2019-01-09T15:19:21.160Z,2.85
2019-01-09T15:21:51.426Z,2.71
2019-01-09T15:24:21.727Z,2.76
2019-01-09T15:26:52.035Z,2.80
2019-01-09T15:29:22.332Z,2.79
2019-01-09T15:31:52.621Z,2.72
2019-01-09T15:34:22.898Z,2.58
2019-01-09T15:36:53.165Z,2.52
2019-01-09T15:39:23.838Z,2.47
2019-01-09T15:41:54.087Z,2.42
2019-01-09T15:44:24.405Z,2.20
2019-01-09T15:46:54.700Z,2.20
2019-01-09T15:49:25.225Z,1.74
2019-01-09T15:51:55.556Z,1.09
2019-01-09T15:54:25.787Z,0.71
2019-01-09T15:56:56.082Z,0.53
2019-01-09T15:59:26.449Z,0.49
2019-01-09T16:01:56.771Z,0.50
2019-01-09T16:04:27.008Z,0.48
2019-01-09T16:06:57.200Z,0.49
2019-01-09T16:09:27.770Z,0.43
2019-01-09T16:11:58.115Z,0.45
2019-01-09T16:14:29.403Z,0.46
2019-01-09T16:16:59.699Z,0.45
2019-01-09T16:19:29.950Z,0.41
2019-01-09T16:22:00.220Z,0.39
2019-01-09T16:24:30.760Z,0.31
2019-01-09T16:27:01.425Z,0.26
2019-01-09T16:29:33.801Z,0.26
2019-01-09T16:32:03.628Z,0.26
2019-01-09T16:34:34.287Z,0.25
2019-01-09T16:37:04.676Z,0.27
2019-01-09T16:39:35.115Z,0.30
2019-01-09T16:42:09.275Z,0.35
2019-01-09T16:44:39.938Z,0.46
2019-01-09T16:47:10.205Z,0.47
2019-01-09T16:49:40.508Z,0.48
2019-01-09T16:52:10.873Z,0.45
2019-01-09T16:54:41.227Z,0.41
2019-01-09T16:57:13.870Z,0.44
2019-01-09T16:59:44.200Z,0.48
2019-01-09T17:02:14.933Z,0.49
2019-01-09T17:04:45.238Z,0.55
2019-01-09T17:07:16.404Z,0.56
2019-01-09T17:09:47.690Z,0.56
2019-01-09T17:12:17.926Z,0.58
2019-01-09T17:14:48.116Z,0.62
2019-01-09T17:17:18.285Z,0.68
2019-01-09T17:19:48.599Z,0.71
2019-01-09T17:22:18.883Z,0.74
2019-01-09T17:24:49.521Z,0.73
2019-01-09T17:27:19.731Z,0.72
2019-01-09T17:29:49.979Z,0.68
2019-01-09T17:32:21.773Z,0.64
2019-01-09T17:34:52.217Z,0.60
2019-01-09T17:37:22.485Z,0.52
2019-01-09T17:39:52.712Z,0.40
2019-01-09T17:42:23.974Z,0.36
2019-01-09T17:44:54.244Z,0.38
2019-01-09T17:47:24.568Z,0.32
2019-01-09T17:49:54.944Z,0.38
2019-01-09T17:52:25.240Z,0.35
2019-01-09T17:54:55.477Z,0.36
2019-01-09T17:57:26.419Z,0.32
2019-01-09T17:59:56.669Z,0.29
2019-01-09T18:02:27.248Z,0.29
2019-01-09T18:04:57.505Z,0.29
2019-01-09T18:07:27.906Z,0.29
2019-01-09T18:10:00.207Z,0.29
2019-01-09T18:12:30.479Z,0.30
2019-01-09T18:15:00.754Z,0.25
2019-01-09T18:17:31.009Z,0.25
2019-01-09T18:20:01.288Z,0.26
2019-01-09T18:22:31.562Z,0.27
2019-01-09T18:25:01.823Z,0.29
2019-01-09T18:27:32.184Z,0.29
2019-01-09T18:30:02.718Z,0.30
2019-01-09T18:32:40.656Z,0.27
2019-01-09T18:35:35.040Z,0.29
2019-01-09T18:38:29.168Z,0.28
2019-01-09T18:41:36.611Z,0.29
2019-01-09T18:44:30.927Z,0.33
2019-01-09T18:47:42.284Z,0.31
2019-01-09T18:50:55.391Z,0.35
2019-01-09T18:53:38.097Z,0.34
2019-01-09T18:56:10.735Z,0.34
2019-01-09T18:58:41.395Z,0.28
2019-01-09T19:01:11.983Z,0.34
2019-01-09T19:03:42.839Z,0.34
2019-01-09T19:06:13.039Z,0.34
2019-01-09T19:08:43.561Z,0.35
2019-01-09T19:11:13.763Z,0.39
2019-01-09T19:13:44.055Z,0.38
2019-01-09T19:16:14.541Z,0.42
2019-01-09T19:18:44.865Z,0.45
2019-01-09T19:21:15.117Z,0.42
2019-01-09T19:23:45.480Z,0.45
2019-01-09T19:26:16.006Z,0.41
2019-01-09T19:28:46.413Z,0.44
2019-01-09T19:31:17.228Z,0.44
2019-01-09T19:33:47.547Z,0.46
2019-01-09T19:36:17.872Z,0.46
2019-01-09T19:38:48.179Z,0.42
2019-01-09T19:41:18.432Z,0.40
2019-01-09T19:43:49.150Z,0.35
2019-01-09T19:46:19.844Z,0.40
2019-01-09T19:48:50.086Z,0.43
2019-01-09T19:51:21.241Z,0.44
2019-01-09T19:53:51.566Z,0.45
2019-01-09T19:56:21.831Z,0.39
2019-01-09T19:58:52.113Z,0.43
2019-01-09T20:01:22.457Z,0.46
2019-01-09T20:03:52.858Z,0.43
2019-01-09T20:06:23.697Z,0.39
2019-01-09T20:08:54.026Z,0.45
2019-01-09T20:11:26.508Z,0.43
2019-01-09T20:13:56.368Z,0.42
2019-01-09T20:16:26.604Z,0.41
2019-01-09T20:18:57.029Z,0.41
2019-01-09T20:21:27.367Z,0.45
2019-01-09T20:23:57.605Z,0.45
2019-01-09T20:26:27.903Z,0.46
2019-01-09T20:28:58.174Z,0.40
2019-01-09T20:31:28.522Z,0.44
2019-01-09T20:33:58.728Z,0.39
2019-01-09T20:36:29.081Z,0.37
2019-01-09T20:38:59.435Z,0.36
2019-01-09T20:41:35.528Z,0.38
2019-01-09T20:44:02.998Z,0.33
2019-01-09T20:46:33.258Z,0.36
2019-01-09T20:49:03.654Z,0.36
2019-01-09T20:51:34.001Z,0.36
2019-01-09T20:54:04.535Z,0.34
2019-01-09T20:56:35.215Z,0.33
2019-01-09T20:59:05.837Z,0.33
2019-01-09T21:01:36.180Z,0.33
2019-01-09T21:04:06.974Z,0.38
2019-01-09T21:06:37.147Z,0.39
2019-01-09T21:09:08.999Z,0.42
2019-01-09T21:11:44.207Z,0.48
2019-01-09T21:14:11.200Z,0.49
2019-01-09T21:16:42.518Z,0.50
2019-01-09T21:19:13.727Z,0.50
2019-01-09T21:21:44.176Z,0.51
2019-01-09T21:24:14.502Z,0.52
2019-01-09T21:26:45.735Z,0.52
2019-01-09T21:29:16.256Z,0.50
2019-01-09T21:31:46.514Z,0.52
2019-01-09T21:34:16.765Z,0.48
2019-01-09T21:36:47.020Z,0.50
2019-01-09T21:39:17.391Z,0.51
2019-01-09T21:41:53.301Z,0.47
2019-01-09T21:44:19.991Z,0.48
2019-01-09T21:46:50.310Z,0.49
2019-01-09T21:49:21.624Z,0.49
2019-01-09T21:51:51.996Z,0.49
2019-01-09T21:54:22.615Z,0.45
2019-01-09T21:56:52.871Z,0.43
2019-01-09T21:59:23.349Z,0.39
2019-01-09T22:01:53.664Z,0.42
2019-01-09T22:04:23.955Z,0.39
2019-01-09T22:06:54.536Z,0.36
2019-01-09T22:09:24.795Z,0.36
2019-01-09T22:12:02.381Z,0.33
2019-01-09T22:14:27.094Z,0.35
2019-01-09T22:16:57.432Z,0.30
2019-01-09T22:19:27.627Z,0.28
2019-01-09T22:21:57.914Z,0.29
2019-01-09T22:24:28.071Z,0.30
2019-01-09T22:26:58.352Z,0.33
2019-01-09T22:29:28.635Z,0.31
2019-01-09T22:31:58.908Z,0.29
2019-01-09T22:34:29.295Z,0.26
2019-01-09T22:37:00.646Z,0.24
2019-01-09T22:39:31.361Z,0.23
2019-01-09T22:42:01.646Z,0.25
2019-01-09T22:44:32.224Z,0.24
2019-01-09T22:47:03.435Z,0.27
2019-01-09T22:49:33.973Z,0.26
2019-01-09T22:52:04.612Z,0.24
2019-01-09T22:54:36.964Z,0.21
2019-01-09T22:57:06.860Z,0.21
2019-01-09T22:59:39.163Z,0.30
2019-01-09T23:02:10.802Z,0.29
2019-01-09T23:04:41.966Z,0.35
2019-01-09T23:07:12.471Z,0.29
2019-01-09T23:09:42.841Z,0.34
2019-01-09T23:12:21.112Z,0.35
2019-01-09T23:14:45.325Z,0.36
2019-01-09T23:17:15.516Z,0.36
2019-01-09T23:19:45.776Z,0.38
2019-01-09T23:22:16.233Z,0.36
2019-01-09T23:24:46.498Z,0.37
2019-01-09T23:27:16.800Z,0.36
2019-01-09T23:29:47.160Z,0.35
2019-01-09T23:32:17.841Z,0.34
2019-01-09T23:34:49.086Z,0.31
2019-01-09T23:37:19.320Z,0.31
2019-01-09T23:39:49.536Z,0.28
2019-01-09T23:42:19.981Z,0.28
2019-01-09T23:44:50.276Z,0.33
2019-01-09T23:47:20.680Z,0.34
2019-01-09T23:49:50.958Z,0.39
2019-01-09T23:52:21.292Z,0.39
2019-01-09T23:54:51.587Z,0.37
2019-01-09T23:57:21.882Z,0.40
2019-01-09T23:59:52.492Z,0.36
